Time;durP1;ratioP1;P1;durP2;ratioP2;P2;SDS_P1;SDS_P2;PMS_P1;PMS_P2;Temp;Humidity;BMP_temperature;BMP_pressure;BME280_temperature;BME280_humidity;BME280_pressure;Samples;Min_cycle;Max_cycle;Signal;HPM_P1;HPM_P2
2023/12/09 00:02:00;;;;;;;9.93;1.30;;;;;;;;;;5019378;28;20372;-42
2023/12/09 00:04:28;;;;;;;13.97;1.40;;;;;;;;;;5016316;28;20067;-43
2023/12/09 00:06:56;;;;;;;14.32;1.13;;;;;;;;;;5022261;28;20515;-42
2023/12/09 00:09:24;;;;;;;12.52;1.30;;;;;;;;;;5010948;28;20410;-42
2023/12/09 00:11:52;;;;;;;8.63;1.00;;;;;;;;;;5020257;28;20496;-43
2023/12/09 00:14:21;;;;;;;10.00;0.82;;;;;;;;;;5012981;28;20055;-43
2023/12/09 00:16:49;;;;;;;9.03;0.80;;;;;;;;;;5022457;28;20037;-42
2023/12/09 00:19:17;;;;;;;13.38;1.67;;;;;;;;;;5006062;28;20045;-42
2023/12/09 00:21:45;;;;;;;13.25;1.13;;;;;;;;;;5024579;28;20430;-42
2023/12/09 00:24:13;;;;;;;17.83;1.10;;;;;;;;;;5010310;28;20045;-43
2023/12/09 00:26:41;;;;;;;14.80;1.65;;;;;;;;;;5043813;28;20504;-42
2023/12/09 00:29:09;;;;;;;9.60;0.90;;;;;;;;;;5009211;28;20069;-42
2023/12/09 00:31:39;;;;;;;10.65;0.90;;;;;;;;;;5017481;28;20091;-42
2023/12/09 00:34:07;;;;;;;10.43;1.05;;;;;;;;;;5017595;28;20029;-42
2023/12/09 00:36:34;;;;;;;10.75;1.60;;;;;;;;;;5020786;28;20037;-42
2023/12/09 00:39:02;;;;;;;9.63;0.77;;;;;;;;;;5012916;28;20496;-42
2023/12/09 00:41:30;;;;;;;18.37;1.40;;;;;;;;;;5022117;28;20327;-42
2023/12/09 00:43:58;;;;;;;10.80;2.05;;;;;;;;;;5021741;28;20041;-44
2023/12/09 00:46:25;;;;;;;11.52;1.30;;;;;;;;;;5018627;28;20329;-42
2023/12/09 00:48:54;;;;;;;9.13;0.75;;;;;;;;;;4999060;28;20415;-43
2023/12/09 00:51:22;;;;;;;9.18;1.08;;;;;;;;;;5016448;28;20126;-42
2023/12/09 00:53:50;;;;;;;9.07;1.10;;;;;;;;;;5041879;28;20663;-42
2023/12/09 00:56:18;;;;;;;11.38;1.50;;;;;;;;;;5015324;28;20060;-42
2023/12/09 00:59:02;;;;;;;9.73;0.98;;;;;;;;;;5017169;28;20049;-44
2023/12/09 01:01:30;;;;;;;13.05;1.70;;;;;;;;;;5013756;28;20048;-42
2023/12/09 01:04:00;;;;;;;8.70;0.90;;;;;;;;;;5023720;28;20095;-42
2023/12/09 01:06:28;;;;;;;7.87;0.70;;;;;;;;;;5014463;28;20454;-42
2023/12/09 01:08:56;;;;;;;10.05;1.27;;;;;;;;;;5025422;28;20053;-42
2023/12/09 01:11:25;;;;;;;7.65;0.82;;;;;;;;;;5018260;28;20091;-42
2023/12/09 01:13:53;;;;;;;11.80;1.00;;;;;;;;;;5031642;28;20045;-44
2023/12/09 01:16:20;;;;;;;11.27;0.88;;;;;;;;;;5019009;28;20106;-43
2023/12/09 01:18:48;;;;;;;8.87;1.10;;;;;;;;;;5028354;28;20049;-42
2023/12/09 01:21:17;;;;;;;10.90;0.73;;;;;;;;;;5015601;28;20051;-42
2023/12/09 01:23:45;;;;;;;12.00;0.65;;;;;;;;;;5033544;28;20502;-42
2023/12/09 01:26:13;;;;;;;8.35;0.88;;;;;;;;;;5011742;28;20037;-44
2023/12/09 01:28:40;;;;;;;7.55;0.90;;;;;;;;;;5028598;28;20095;-42
2023/12/09 01:31:08;;;;;;;6.83;0.70;;;;;;;;;;5019942;28;20049;-42
2023/12/09 01:33:37;;;;;;;11.75;1.17;;;;;;;;;;5028831;28;20056;-42
2023/12/09 01:36:05;;;;;;;10.88;1.00;;;;;;;;;;5020669;28;20047;-43
2023/12/09 01:38:35;;;;;;;9.40;1.00;;;;;;;;;;5026518;28;20039;-42
2023/12/09 01:41:03;;;;;;;12.23;1.10;;;;;;;;;;5027514;28;20044;-44
2023/12/09 01:43:31;;;;;;;11.83;0.80;;;;;;;;;;5023529;28;20037;-42
2023/12/09 01:46:03;;;;;;;8.63;1.05;;;;;;;;;;5018256;28;20041;-42
2023/12/09 01:48:31;;;;;;;8.23;1.15;;;;;;;;;;5026774;28;20614;-42
2023/12/09 01:51:01;;;;;;;7.38;1.00;;;;;;;;;;5027619;28;20103;-42
2023/12/09 01:53:29;;;;;;;13.05;1.25;;;;;;;;;;5024007;28;20053;-42
2023/12/09 01:56:02;;;;;;;9.50;1.57;;;;;;;;;;5033584;28;21361;-42
2023/12/09 01:58:30;;;;;;;10.02;1.10;;;;;;;;;;5028211;28;20469;-42
2023/12/09 02:00:58;;;;;;;9.23;1.10;;;;;;;;;;5020028;28;20327;-45
2023/12/09 02:03:26;;;;;;;10.90;0.82;;;;;;;;;;5029995;28;20072;-42
2023/12/09 02:05:53;;;;;;;9.73;1.00;;;;;;;;;;5017983;28;20040;-42
2023/12/09 02:08:21;;;;;;;8.47;1.80;;;;;;;;;;5049350;28;20048;-42
2023/12/09 02:11:02;;;;;;;8.63;1.27;;;;;;;;;;5016479;28;20812;-42
2023/12/09 02:13:38;;;;;;;7.30;0.98;;;;;;;;;;5019318;28;20115;-42
2023/12/09 02:16:07;;;;;;;11.32;1.23;;;;;;;;;;5016832;28;20044;-43
2023/12/09 02:18:36;;;;;;;13.88;1.17;;;;;;;;;;5025502;28;20075;-42
2023/12/09 02:21:21;;;;;;;11.87;1.37;;;;;;;;;;5023288;28;20045;-43
2023/12/09 02:23:50;;;;;;;13.50;1.25;;;;;;;;;;5023771;28;20033;-43
2023/12/09 02:26:20;;;;;;;9.65;1.10;;;;;;;;;;5023271;28;20043;-42
2023/12/09 02:28:52;;;;;;;13.00;1.52;;;;;;;;;;5011792;28;20037;-44
2023/12/09 02:31:21;;;;;;;16.20;1.58;;;;;;;;;;5017353;28;20037;-42
2023/12/09 02:33:50;;;;;;;9.83;1.43;;;;;;;;;;5026954;28;20099;-42
2023/12/09 02:36:20;;;;;;;11.63;1.33;;;;;;;;;;5020403;28;20048;-44
2023/12/09 02:38:48;;;;;;;13.18;1.38;;;;;;;;;;5023231;28;21032;-42
2023/12/09 02:41:17;;;;;;;11.25;1.00;;;;;;;;;;5029656;28;20498;-42
2023/12/09 02:43:45;;;;;;;10.00;1.08;;;;;;;;;;5013942;28;20322;-42
2023/12/09 02:46:13;;;;;;;9.00;0.93;;;;;;;;;;5022461;28;20056;-45
2023/12/09 02:48:41;;;;;;;13.02;1.30;;;;;;;;;;5026586;28;20147;-43
2023/12/09 02:51:09;;;;;;;13.45;0.63;;;;;;;;;;5033321;28;20130;-42
2023/12/09 02:53:37;;;;;;;13.68;0.85;;;;;;;;;;5021777;28;20080;-42
2023/12/09 02:56:05;;;;;;;12.55;0.88;;;;;;;;;;5032867;28;20044;-42
2023/12/09 02:58:34;;;;;;;9.87;0.90;;;;;;;;;;5014832;28;20056;-42
2023/12/09 03:01:02;;;;;;;8.85;1.02;;;;;;;;;;5026522;28;20041;-42
2023/12/09 03:03:30;;;;;;;15.85;0.80;;;;;;;;;;5044131;28;20512;-42
2023/12/09 03:05:57;;;;;;;9.52;1.13;;;;;;;;;;5025576;28;20098;-42
2023/12/09 03:08:25;;;;;;;8.25;0.98;;;;;;;;;;5027387;28;20080;-42
2023/12/09 03:10:53;;;;;;;9.23;0.80;;;;;;;;;;5029926;28;20056;-42
2023/12/09 03:13:20;;;;;;;6.32;0.80;;;;;;;;;;5024920;28;20045;-44
2023/12/09 03:15:49;;;;;;;5.25;0.60;;;;;;;;;;5030924;28;20095;-44
2023/12/09 03:18:17;;;;;;;11.50;0.90;;;;;;;;;;5022868;28;20498;-43
2023/12/09 03:20:45;;;;;;;8.70;1.02;;;;;;;;;;5029115;28;20124;-42
2023/12/09 03:23:13;;;;;;;7.30;0.70;;;;;;;;;;5011063;28;20091;-43
2023/12/09 03:25:40;;;;;;;9.02;0.77;;;;;;;;;;5030848;28;20059;-43
2023/12/09 03:28:09;;;;;;;12.15;0.82;;;;;;;;;;5042086;28;20049;-43
2023/12/09 03:30:37;;;;;;;9.82;0.65;;;;;;;;;;5012821;28;20037;-42
2023/12/09 03:33:06;;;;;;;10.75;1.10;;;;;;;;;;5026832;28;20041;-42
2023/12/09 03:35:34;;;;;;;9.20;0.50;;;;;;;;;;5045704;28;20033;-42
2023/12/09 03:38:01;;;;;;;7.43;0.68;;;;;;;;;;5019044;28;20052;-43
2023/12/09 03:40:29;;;;;;;5.35;0.90;;;;;;;;;;5017366;28;20693;-42
2023/12/09 03:42:57;;;;;;;8.00;0.52;;;;;;;;;;5035255;28;20048;-42
2023/12/09 03:45:25;;;;;;;8.85;0.60;;;;;;;;;;5016213;28;20037;-43
2023/12/09 03:47:53;;;;;;;6.83;1.00;;;;;;;;;;5029878;28;20037;-42
2023/12/09 03:50:22;;;;;;;14.07;1.00;;;;;;;;;;5017028;28;20049;-42
2023/12/09 03:52:50;;;;;;;6.30;0.77;;;;;;;;;;5030465;28;20037;-42
2023/12/09 03:55:18;;;;;;;6.95;0.80;;;;;;;;;;5017237;28;20045;-42
2023/12/09 03:57:48;;;;;;;12.57;0.68;;;;;;;;;;5017174;28;20052;-43
2023/12/09 04:00:16;;;;;;;9.57;0.60;;;;;;;;;;5019169;28;20056;-42
2023/12/09 04:02:44;;;;;;;7.90;0.50;;;;;;;;;;5018658;28;20052;-43
2023/12/09 04:05:12;;;;;;;9.02;0.43;;;;;;;;;;5029760;28;20045;-43
2023/12/09 04:07:41;;;;;;;7.95;0.60;;;;;;;;;;5021292;28;20479;-43
2023/12/09 04:10:10;;;;;;;8.63;0.68;;;;;;;;;;5024976;28;20041;-42
2023/12/09 04:12:37;;;;;;;9.73;0.90;;;;;;;;;;5027491;28;20482;-42
2023/12/09 04:15:06;;;;;;;7.55;1.00;;;;;;;;;;5025724;28;20045;-42
2023/12/09 04:17:33;;;;;;;5.57;0.50;;;;;;;;;;5020149;28;20119;-43
2023/12/09 04:20:02;;;;;;;6.13;0.45;;;;;;;;;;5027704;28;20037;-42
2023/12/09 04:22:32;;;;;;;8.25;0.80;;;;;;;;;;5032816;28;20052;-42
2023/12/09 04:25:04;;;;;;;3.70;0.47;;;;;;;;;;5019714;28;20508;-42
2023/12/09 04:27:32;;;;;;;8.45;0.50;;;;;;;;;;5023945;28;20499;-42
2023/12/09 04:30:03;;;;;;;4.15;0.45;;;;;;;;;;5019390;28;20041;-42
2023/12/09 04:32:32;;;;;;;8.70;0.50;;;;;;;;;;5026517;28;20484;-42
2023/12/09 04:35:00;;;;;;;10.88;0.93;;;;;;;;;;5016183;28;20569;-43
2023/12/09 04:37:28;;;;;;;3.87;0.40;;;;;;;;;;5031074;28;20088;-42
2023/12/09 04:39:55;;;;;;;4.13;0.40;;;;;;;;;;5032025;28;20037;-41
2023/12/09 04:42:24;;;;;;;4.00;0.85;;;;;;;;;;5026352;28;20060;-42
2023/12/09 04:44:53;;;;;;;4.70;0.40;;;;;;;;;;5035559;28;20037;-44
2023/12/09 04:47:21;;;;;;;7.68;0.40;;;;;;;;;;5023037;28;20116;-42
2023/12/09 04:49:49;;;;;;;5.63;0.63;;;;;;;;;;5039298;28;20048;-42
2023/12/09 04:52:16;;;;;;;5.00;0.52;;;;;;;;;;5015310;28;20120;-43
2023/12/09 04:54:44;;;;;;;5.88;0.57;;;;;;;;;;5033807;28;20198;-41
2023/12/09 04:57:12;;;;;;;5.28;0.85;;;;;;;;;;5021751;28;20099;-41
2023/12/09 04:59:41;;;;;;;5.18;0.60;;;;;;;;;;5024771;28;20040;-41
2023/12/09 05:02:09;;;;;;;6.00;0.47;;;;;;;;;;5022824;28;20057;-43
2023/12/09 05:04:37;;;;;;;5.85;0.70;;;;;;;;;;5032882;28;20453;-42
2023/12/09 05:07:05;;;;;;;3.78;0.77;;;;;;;;;;5024181;28;20045;-41
2023/12/09 05:09:32;;;;;;;3.75;0.40;;;;;;;;;;5021735;28;20514;-41
2023/12/09 05:12:01;;;;;;;4.13;0.32;;;;;;;;;;5026412;28;20048;-41
2023/12/09 05:14:29;;;;;;;6.27;0.47;;;;;;;;;;5033375;28;20037;-41
2023/12/09 05:16:58;;;;;;;3.40;0.30;;;;;;;;;;5028587;28;20052;-42
2023/12/09 05:19:26;;;;;;;4.20;0.30;;;;;;;;;;5032425;28;20676;-41
2023/12/09 05:21:54;;;;;;;6.03;0.30;;;;;;;;;;5018326;28;20041;-41
2023/12/09 05:24:22;;;;;;;5.65;0.50;;;;;;;;;;5024935;28;20053;-43
2023/12/09 05:26:50;;;;;;;3.97;0.40;;;;;;;;;;5021789;28;21045;-43
2023/12/09 05:29:17;;;;;;;2.83;0.22;;;;;;;;;;5023818;28;20044;-42
2023/12/09 05:31:45;;;;;;;4.25;0.30;;;;;;;;;;5031260;28;20045;-42
2023/12/09 05:34:14;;;;;;;3.30;0.50;;;;;;;;;;5026998;28;20056;-42
2023/12/09 05:36:42;;;;;;;2.88;0.68;;;;;;;;;;5025847;28;20512;-41
2023/12/09 05:39:11;;;;;;;3.60;0.40;;;;;;;;;;5024853;28;20043;-42
2023/12/09 05:41:41;;;;;;;2.95;0.20;;;;;;;;;;5025817;28;20045;-42
2023/12/09 05:44:13;;;;;;;3.08;0.30;;;;;;;;;;5029018;28;20049;-46
2023/12/09 05:46:41;;;;;;;2.72;0.30;;;;;;;;;;5026484;28;20049;-42
2023/12/09 05:49:08;;;;;;;5.15;0.30;;;;;;;;;;5018102;28;20187;-42
2023/12/09 05:51:38;;;;;;;4.83;0.30;;;;;;;;;;5017946;28;20055;-42
2023/12/09 05:54:05;;;;;;;4.38;0.40;;;;;;;;;;5021671;28;20059;-42
2023/12/09 05:56:33;;;;;;;4.97;0.60;;;;;;;;;;5004057;28;20045;-42
2023/12/09 05:59:01;;;;;;;3.50;0.47;;;;;;;;;;5021175;28;20128;-42
2023/12/09 06:01:29;;;;;;;4.88;0.30;;;;;;;;;;5014341;28;20052;-42
2023/12/09 06:03:57;;;;;;;2.37;0.37;;;;;;;;;;5027840;28;20045;-43
2023/12/09 06:06:24;;;;;;;4.40;0.35;;;;;;;;;;5016278;28;20037;-42
2023/12/09 06:08:54;;;;;;;4.28;0.50;;;;;;;;;;5022860;28;20614;-42
2023/12/09 06:11:21;;;;;;;2.78;0.40;;;;;;;;;;5008293;28;20040;-43
2023/12/09 06:13:50;;;;;;;3.15;0.22;;;;;;;;;;5023835;28;20396;-43
2023/12/09 06:16:18;;;;;;;4.00;0.30;;;;;;;;;;5010062;28;20126;-42
2023/12/09 06:18:46;;;;;;;2.95;0.30;;;;;;;;;;5018563;28;20039;-42
2023/12/09 06:21:19;;;;;;;3.50;0.40;;;;;;;;;;5007664;28;20542;-42
2023/12/09 06:23:47;;;;;;;2.85;0.52;;;;;;;;;;5016314;28;20087;-42
2023/12/09 06:26:16;;;;;;;5.30;0.50;;;;;;;;;;5005327;28;20037;-43
2023/12/09 06:28:44;;;;;;;3.07;0.20;;;;;;;;;;5010574;28;20035;-42
2023/12/09 06:31:12;;;;;;;1.90;0.25;;;;;;;;;;5012949;28;20766;-43
2023/12/09 06:33:39;;;;;;;2.97;0.40;;;;;;;;;;5013567;28;20387;-41
2023/12/09 06:36:08;;;;;;;3.58;0.22;;;;;;;;;;5009231;28;20037;-41
2023/12/09 06:38:39;;;;;;;1.83;0.30;;;;;;;;;;5028959;28;20041;-41
2023/12/09 06:41:07;;;;;;;1.93;0.20;;;;;;;;;;5022846;28;20068;-42
2023/12/09 06:43:36;;;;;;;1.52;0.25;;;;;;;;;;5019153;28;20388;-44
2023/12/09 06:46:04;;;;;;;3.75;0.30;;;;;;;;;;5029781;28;20106;-41
2023/12/09 06:48:32;;;;;;;3.28;0.30;;;;;;;;;;5023672;28;20275;-42
2023/12/09 06:50:59;;;;;;;2.60;0.30;;;;;;;;;;5026395;28;20040;-43
2023/12/09 06:53:27;;;;;;;3.90;0.40;;;;;;;;;;5009321;28;20554;-41
2023/12/09 06:55:55;;;;;;;1.65;0.22;;;;;;;;;;5019299;28;20095;-41
2023/12/09 06:58:23;;;;;;;3.20;0.30;;;;;;;;;;5002254;28;20400;-41
2023/12/09 07:00:52;;;;;;;2.60;0.30;;;;;;;;;;5026012;28;20082;-42
2023/12/09 07:03:20;;;;;;;4.13;0.40;;;;;;;;;;5003333;28;20048;-41
2023/12/09 07:05:47;;;;;;;1.67;0.20;;;;;;;;;;5021213;28;20040;-42
2023/12/09 07:08:15;;;;;;;2.80;0.22;;;;;;;;;;5016451;28;20095;-42
2023/12/09 07:10:44;;;;;;;1.88;0.30;;;;;;;;;;5026803;28;20033;-42
2023/12/09 07:13:12;;;;;;;1.63;0.30;;;;;;;;;;5012078;28;20103;-41
2023/12/09 07:15:39;;;;;;;3.50;0.20;;;;;;;;;;5027827;28;20052;-41
2023/12/09 07:18:09;;;;;;;1.70;0.20;;;;;;;;;;5005237;28;20051;-42
2023/12/09 07:20:37;;;;;;;2.63;0.20;;;;;;;;;;5020961;28;20138;-43
2023/12/09 07:23:05;;;;;;;1.17;0.20;;;;;;;;;;5024400;28;20052;-42
2023/12/09 07:25:33;;;;;;;1.30;0.20;;;;;;;;;;5017228;28;20590;-41
2023/12/09 07:28:00;;;;;;;1.30;0.20;;;;;;;;;;5021572;28;20045;-42
2023/12/09 07:30:28;;;;;;;2.07;0.30;;;;;;;;;;5009336;28;20048;-41
2023/12/09 07:32:56;;;;;;;1.27;0.20;;;;;;;;;;5012282;28;20042;-43
2023/12/09 07:35:26;;;;;;;1.80;0.30;;;;;;;;;;5016586;28;20069;-42
2023/12/09 07:37:55;;;;;;;1.10;0.20;;;;;;;;;;5017765;28;20045;-42
2023/12/09 07:40:22;;;;;;;1.40;0.20;;;;;;;;;;5021250;28;20040;-42
2023/12/09 07:42:50;;;;;;;1.30;0.20;;;;;;;;;;5021472;28;20048;-41
2023/12/09 07:45:18;;;;;;;1.20;0.20;;;;;;;;;;5024022;28;20098;-43
2023/12/09 07:47:45;;;;;;;1.48;0.20;;;;;;;;;;5024691;28;20120;-42
2023/12/09 07:50:13;;;;;;;1.38;0.20;;;;;;;;;;5018583;28;20134;-42
2023/12/09 07:52:42;;;;;;;1.17;0.20;;;;;;;;;;5020544;28;20041;-42
2023/12/09 07:55:10;;;;;;;2.60;0.30;;;;;;;;;;5022735;28;20052;-42
2023/12/09 07:57:38;;;;;;;2.75;0.20;;;;;;;;;;5031815;28;20439;-42
2023/12/09 08:00:07;;;;;;;2.05;0.30;;;;;;;;;;5019108;28;20549;-42
2023/12/09 08:02:36;;;;;;;1.65;0.30;;;;;;;;;;5017331;28;20048;-42
2023/12/09 08:05:04;;;;;;;1.52;0.20;;;;;;;;;;5016967;28;20052;-42
2023/12/09 08:07:32;;;;;;;1.50;0.20;;;;;;;;;;5018662;28;20045;-46
2023/12/09 08:10:01;;;;;;;2.30;0.20;;;;;;;;;;5028119;28;20060;-42
2023/12/09 08:12:31;;;;;;;1.77;0.30;;;;;;;;;;5020372;28;20041;-42
2023/12/09 08:14:59;;;;;;;1.20;0.17;;;;;;;;;;5029732;28;20075;-42
2023/12/09 08:17:27;;;;;;;3.03;0.30;;;;;;;;;;5021904;28;20443;-42
2023/12/09 08:19:55;;;;;;;1.10;0.20;;;;;;;;;;5027703;28;20048;-42
2023/12/09 08:22:23;;;;;;;1.55;0.20;;;;;;;;;;5020165;28;20320;-43
2023/12/09 08:24:50;;;;;;;1.20;0.20;;;;;;;;;;5022361;28;20124;-42
2023/12/09 08:27:19;;;;;;;1.33;0.20;;;;;;;;;;5019332;28;20059;-43
2023/12/09 08:29:47;;;;;;;1.38;0.20;;;;;;;;;;5015117;28;20047;-42
2023/12/09 08:32:15;;;;;;;1.63;0.20;;;;;;;;;;5022588;28;20041;-42
2023/12/09 08:34:43;;;;;;;1.60;0.30;;;;;;;;;;5024328;28;20063;-42
2023/12/09 08:37:27;;;;;;;1.70;0.28;;;;;;;;;;5016717;28;20534;-42
2023/12/09 08:39:56;;;;;;;2.38;0.20;;;;;;;;;;5014039;28;20036;-43
2023/12/09 08:42:25;;;;;;;1.65;0.35;;;;;;;;;;5016105;28;20041;-42
2023/12/09 08:44:55;;;;;;;1.10;0.20;;;;;;;;;;5020273;28;20091;-42
2023/12/09 08:47:22;;;;;;;3.35;0.20;;;;;;;;;;5021666;28;20118;-42
2023/12/09 08:49:50;;;;;;;1.85;0.30;;;;;;;;;;5018383;28;20148;-43
2023/12/09 08:52:19;;;;;;;2.20;0.38;;;;;;;;;;5004830;28;20041;-43
2023/12/09 08:54:47;;;;;;;1.60;0.20;;;;;;;;;;5020608;28;20108;-44
2023/12/09 08:57:14;;;;;;;1.63;0.20;;;;;;;;;;5017383;28;20056;-45
2023/12/09 08:59:44;;;;;;;1.52;0.20;;;;;;;;;;5025699;28;20048;-44
2023/12/09 09:02:12;;;;;;;2.88;0.30;;;;;;;;;;5019633;28;20051;-43
2023/12/09 09:04:39;;;;;;;2.17;0.30;;;;;;;;;;5020658;28;20045;-45
2023/12/09 09:07:07;;;;;;;2.28;0.50;;;;;;;;;;5025515;28;20048;-43
2023/12/09 09:09:35;;;;;;;3.40;0.47;;;;;;;;;;5026308;28;20045;-44
2023/12/09 09:12:03;;;;;;;1.73;0.30;;;;;;;;;;5026446;28;20037;-43
2023/12/09 09:14:31;;;;;;;4.10;0.40;;;;;;;;;;5021159;28;20120;-43
2023/12/09 09:17:00;;;;;;;1.50;0.28;;;;;;;;;;5048726;28;20059;-43
2023/12/09 09:19:28;;;;;;;2.10;0.30;;;;;;;;;;5017789;28;20574;-45
2023/12/09 09:21:56;;;;;;;2.00;0.40;;;;;;;;;;5021578;28;20044;-43
2023/12/09 09:24:24;;;;;;;2.17;0.25;;;;;;;;;;5013613;28;20115;-44
2023/12/09 09:26:52;;;;;;;1.92;0.30;;;;;;;;;;5023545;28;20162;-43
2023/12/09 09:29:20;;;;;;;1.80;0.30;;;;;;;;;;4661405;28;9999689;-43
2023/12/09 09:31:48;;;;;;;2.42;0.40;;;;;;;;;;5010937;28;20827;-42
2023/12/09 09:34:34;;;;;;;2.05;0.30;;;;;;;;;;5013708;28;20545;-43
2023/12/09 09:37:02;;;;;;;2.20;0.40;;;;;;;;;;5012554;28;20048;-43
2023/12/09 09:39:30;;;;;;;2.20;0.30;;;;;;;;;;5017013;28;20413;-43
2023/12/09 09:42:04;;;;;;;3.00;0.57;;;;;;;;;;5019112;28;20063;-43
2023/12/09 09:44:33;;;;;;;3.08;0.80;;;;;;;;;;4986918;28;20090;-43
2023/12/09 09:47:02;;;;;;;2.92;0.50;;;;;;;;;;5020333;28;20049;-43
2023/12/09 09:49:30;;;;;;;2.70;0.60;;;;;;;;;;5016467;28;20486;-43
2023/12/09 09:52:00;;;;;;;3.90;0.67;;;;;;;;;;5012222;28;20068;-44
2023/12/09 09:54:30;;;;;;;2.95;0.55;;;;;;;;;;5016862;28;20424;-45
2023/12/09 09:56:59;;;;;;;3.00;0.50;;;;;;;;;;5003976;28;20040;-42
2023/12/09 09:59:27;;;;;;;2.85;0.38;;;;;;;;;;5026667;28;20045;-42
2023/12/09 10:01:55;;;;;;;5.30;0.70;;;;;;;;;;5013174;28;20090;-43
2023/12/09 10:04:22;;;;;;;2.37;0.50;;;;;;;;;;5008543;28;20033;-43
2023/12/09 10:06:50;;;;;;;3.85;0.50;;;;;;;;;;4669819;28;9999699;-43
2023/12/09 10:09:20;;;;;;;2.30;0.40;;;;;;;;;;5012202;28;20095;-43
2023/12/09 10:11:47;;;;;;;2.55;0.30;;;;;;;;;;5015059;28;20048;-43
2023/12/09 10:14:15;;;;;;;2.60;0.47;;;;;;;;;;5028184;28;20045;-46
2023/12/09 10:16:44;;;;;;;1.73;0.30;;;;;;;;;;4964058;28;20826;-43
2023/12/09 10:19:14;;;;;;;5.13;0.70;;;;;;;;;;5030958;28;20045;-43
2023/12/09 10:21:42;;;;;;;3.60;0.57;;;;;;;;;;5012200;28;20037;-43
2023/12/09 10:24:10;;;;;;;2.45;0.50;;;;;;;;;;5022609;28;20068;-43
2023/12/09 10:26:40;;;;;;;3.05;0.55;;;;;;;;;;5023751;28;20041;-43
2023/12/09 10:29:08;;;;;;;3.08;0.50;;;;;;;;;;5018559;28;20483;-43
2023/12/09 10:31:36;;;;;;;3.10;0.40;;;;;;;;;;5018317;28;20135;-44
2023/12/09 10:34:04;;;;;;;4.07;0.40;;;;;;;;;;5017136;28;20747;-46
2023/12/09 10:36:32;;;;;;;2.30;0.30;;;;;;;;;;5010373;28;20064;-43
2023/12/09 10:39:00;;;;;;;3.05;0.40;;;;;;;;;;5017350;28;20063;-43
2023/12/09 10:41:28;;;;;;;3.20;0.45;;;;;;;;;;5041473;28;20052;-44
2023/12/09 10:43:58;;;;;;;7.90;0.53;;;;;;;;;;5021272;28;20033;-44
2023/12/09 10:46:26;;;;;;;4.13;0.40;;;;;;;;;;5024443;28;20044;-43
2023/12/09 10:48:54;;;;;;;6.07;0.70;;;;;;;;;;5020260;28;20996;-45
2023/12/09 10:51:23;;;;;;;5.07;0.82;;;;;;;;;;5023118;28;20053;-46
2023/12/09 10:53:51;;;;;;;9.15;0.93;;;;;;;;;;5019282;28;20057;-43
2023/12/09 10:56:19;;;;;;;8.87;1.00;;;;;;;;;;5015854;28;20078;-43
2023/12/09 10:58:46;;;;;;;9.27;1.08;;;;;;;;;;5021983;28;20046;-44
2023/12/09 11:01:16;;;;;;;14.77;1.40;;;;;;;;;;5014245;28;20041;-44
2023/12/09 11:03:44;;;;;;;8.27;1.00;;;;;;;;;;5001600;28;20052;-44
2023/12/09 11:06:15;;;;;;;9.88;1.30;;;;;;;;;;5018037;28;20037;-43
2023/12/09 11:08:43;;;;;;;10.93;0.97;;;;;;;;;;5023824;28;20492;-43
2023/12/09 11:11:11;;;;;;;12.95;0.90;;;;;;;;;;5017409;28;20530;-44
2023/12/09 11:13:44;;;;;;;9.07;0.98;;;;;;;;;;5008469;28;20051;-43
2023/12/09 11:16:12;;;;;;;11.43;1.02;;;;;;;;;;5015121;28;20040;-43
2023/12/09 11:18:52;;;;;;;7.55;0.98;;;;;;;;;;5022204;28;20041;-44
2023/12/09 11:21:20;;;;;;;7.97;1.70;;;;;;;;;;5017171;28;20248;-44
2023/12/09 11:23:49;;;;;;;5.68;0.90;;;;;;;;;;5014491;28;20745;-45
2023/12/09 11:26:17;;;;;;;12.25;0.75;;;;;;;;;;5018536;28;20041;-44
2023/12/09 11:28:58;;;;;;;7.88;1.48;;;;;;;;;;5020117;28;20102;-43
2023/12/09 11:31:32;;;;;;;13.50;1.45;;;;;;;;;;5013571;28;20049;-45
2023/12/09 11:34:02;;;;;;;8.93;1.37;;;;;;;;;;5021470;28;20037;-44
2023/12/09 11:36:30;;;;;;;7.88;0.90;;;;;;;;;;5006974;28;20560;-43
2023/12/09 11:38:58;;;;;;;6.70;1.32;;;;;;;;;;4673346;28;10001300;-43
2023/12/09 11:41:26;;;;;;;13.50;1.20;;;;;;;;;;5010752;28;20056;-43
2023/12/09 11:43:54;;;;;;;9.20;1.63;;;;;;;;;;5017431;28;20068;-44
2023/12/09 11:46:22;;;;;;;7.83;1.63;;;;;;;;;;5018345;28;20052;-44
2023/12/09 11:48:51;;;;;;;13.20;1.75;;;;;;;;;;5014228;28;20037;-44
2023/12/09 11:51:20;;;;;;;11.57;2.05;;;;;;;;;;5008595;28;20045;-43
2023/12/09 11:53:55;;;;;;;8.55;0.90;;;;;;;;;;5016546;28;20053;-43
2023/12/09 11:56:23;;;;;;;10.27;1.48;;;;;;;;;;5005627;28;20053;-43
2023/12/09 11:58:54;;;;;;;11.43;1.17;;;;;;;;;;5014798;28;20048;-44
2023/12/09 12:01:23;;;;;;;12.48;2.17;;;;;;;;;;4667422;28;9999684;-46
2023/12/09 12:03:52;;;;;;;11.75;1.10;;;;;;;;;;5002317;28;20590;-43
2023/12/09 12:06:22;;;;;;;10.27;0.98;;;;;;;;;;5011129;28;20048;-43
2023/12/09 12:08:53;;;;;;;10.63;1.45;;;;;;;;;;5012956;28;20037;-45
2023/12/09 12:11:22;;;;;;;13.87;1.47;;;;;;;;;;5031820;28;20064;-44
2023/12/09 12:13:49;;;;;;;15.23;1.30;;;;;;;;;;4998842;28;20033;-44
2023/12/09 12:16:17;;;;;;;14.38;3.20;;;;;;;;;;5029820;28;20052;-44
2023/12/09 12:18:46;;;;;;;17.48;1.95;;;;;;;;;;5015731;28;20044;-42
2023/12/09 12:21:14;;;;;;;23.00;2.13;;;;;;;;;;4665089;28;10000177;-44
2023/12/09 12:23:43;;;;;;;16.05;1.90;;;;;;;;;;5022687;28;20951;-42
2023/12/09 12:26:12;;;;;;;9.77;1.50;;;;;;;;;;4641596;28;9999948;-42
2023/12/09 12:28:41;;;;;;;15.95;2.33;;;;;;;;;;5012016;28;20502;-43
2023/12/09 12:31:11;;;;;;;24.95;2.63;;;;;;;;;;5016787;28;20052;-42
2023/12/09 12:33:39;;;;;;;13.00;2.05;;;;;;;;;;5013196;28;20258;-44
2023/12/09 12:36:09;;;;;;;22.95;3.63;;;;;;;;;;5015090;28;20943;-44
2023/12/09 12:38:37;;;;;;;18.67;1.97;;;;;;;;;;5016212;28;20099;-43
2023/12/09 12:41:07;;;;;;;19.33;2.38;;;;;;;;;;5016821;28;20037;-42
2023/12/09 12:43:43;;;;;;;28.83;2.31;;;;;;;;;;4924087;28;10000896;-44
2023/12/09 12:46:11;;;;;;;9.80;1.20;;;;;;;;;;5027377;28;20247;-44
2023/12/09 12:48:38;;;;;;;11.38;1.77;;;;;;;;;;5011796;28;20576;-42
2023/12/09 12:51:07;;;;;;;23.52;2.60;;;;;;;;;;5018036;28;20049;-43
2023/12/09 12:53:35;;;;;;;17.17;3.35;;;;;;;;;;5014054;28;20454;-43
2023/12/09 12:56:02;;;;;;;13.63;2.33;;;;;;;;;;5039204;28;20041;-42
2023/12/09 12:58:32;;;;;;;21.98;2.53;;;;;;;;;;5017631;28;20791;-42
2023/12/09 13:00:59;;;;;;;21.00;2.20;;;;;;;;;;5012978;28;20056;-43
2023/12/09 13:03:27;;;;;;;16.77;2.22;;;;;;;;;;5016351;28;20052;-43
2023/12/09 13:05:55;;;;;;;17.98;2.60;;;;;;;;;;5017217;28;20033;-43
2023/12/09 13:08:24;;;;;;;18.17;2.57;;;;;;;;;;5018899;28;20513;-43
2023/12/09 13:10:52;;;;;;;13.45;2.00;;;;;;;;;;5013944;28;20044;-47
2023/12/09 13:13:19;;;;;;;19.52;1.65;;;;;;;;;;5014815;28;20538;-42
2023/12/09 13:15:49;;;;;;;13.70;1.60;;;;;;;;;;4666879;28;10000601;-42
2023/12/09 13:18:17;;;;;;;13.50;1.90;;;;;;;;;;5007543;28;20073;-42
2023/12/09 13:20:49;;;;;;;18.58;2.63;;;;;;;;;;5017607;28;20483;-43
2023/12/09 13:23:17;;;;;;;10.55;1.20;;;;;;;;;;5012779;28;20044;-43
2023/12/09 13:25:46;;;;;;;13.97;2.43;;;;;;;;;;5018848;28;20044;-42
2023/12/09 13:28:14;;;;;;;11.43;1.80;;;;;;;;;;5013000;28;20411;-43
2023/12/09 13:30:42;;;;;;;15.02;1.98;;;;;;;;;;5017102;28;20041;-44
2023/12/09 13:33:12;;;;;;;17.67;3.00;;;;;;;;;;5013215;28;20045;-46
2023/12/09 13:35:39;;;;;;;7.65;1.38;;;;;;;;;;5010656;28;20044;-45
2023/12/09 13:38:08;;;;;;;14.33;1.43;;;;;;;;;;5020362;28;20041;-44
2023/12/09 13:40:37;;;;;;;10.32;1.10;;;;;;;;;;5019688;28;20746;-45
2023/12/09 13:43:06;;;;;;;14.35;1.98;;;;;;;;;;5019005;28;20399;-44
2023/12/09 13:45:35;;;;;;;14.32;1.70;;;;;;;;;;5020054;28;20914;-46
2023/12/09 13:48:04;;;;;;;18.05;2.45;;;;;;;;;;5017572;28;20043;-43
2023/12/09 13:50:34;;;;;;;23.33;2.10;;;;;;;;;;5016490;28;20041;-44
2023/12/09 13:53:07;;;;;;;13.40;1.73;;;;;;;;;;5033737;28;20047;-42
2023/12/09 13:55:35;;;;;;;15.00;1.60;;;;;;;;;;5022095;28;20033;-45
2023/12/09 13:58:03;;;;;;;15.43;1.98;;;;;;;;;;5023134;28;20215;-44
2023/12/09 14:00:31;;;;;;;22.67;2.28;;;;;;;;;;5012679;28;20060;-45
2023/12/09 14:02:59;;;;;;;16.17;1.87;;;;;;;;;;5019537;28;20036;-44
2023/12/09 14:05:29;;;;;;;25.42;3.38;;;;;;;;;;5032062;28;20134;-45
2023/12/09 14:07:58;;;;;;;18.13;2.45;;;;;;;;;;5024963;28;20422;-45
2023/12/09 14:10:26;;;;;;;15.80;1.80;;;;;;;;;;5024914;28;20051;-44
2023/12/09 14:12:53;;;;;;;22.83;3.92;;;;;;;;;;5023305;28;20037;-43
2023/12/09 14:15:21;;;;;;;24.70;3.23;;;;;;;;;;5027792;28;20123;-43
2023/12/09 14:17:49;;;;;;;20.45;2.60;;;;;;;;;;5023812;28;20652;-44
2023/12/09 14:20:19;;;;;;;25.60;2.75;;;;;;;;;;5028053;28;20037;-44
2023/12/09 14:22:47;;;;;;;17.67;2.58;;;;;;;;;;5018843;28;20042;-43
2023/12/09 14:25:16;;;;;;;14.48;2.60;;;;;;;;;;5022295;28;20064;-44
2023/12/09 14:27:44;;;;;;;17.63;2.10;;;;;;;;;;5045277;28;20029;-43
2023/12/09 14:30:12;;;;;;;20.33;3.40;;;;;;;;;;5024681;28;20037;-44
2023/12/09 14:32:43;;;;;;;13.80;1.90;;;;;;;;;;5018933;28;20119;-43
2023/12/09 14:35:12;;;;;;;14.32;2.22;;;;;;;;;;5027183;28;20052;-43
2023/12/09 14:37:40;;;;;;;18.25;2.63;;;;;;;;;;5024993;28;20047;-45
2023/12/09 14:40:08;;;;;;;18.33;2.53;;;;;;;;;;5053877;28;20021;-43
2023/12/09 14:42:38;;;;;;;20.02;2.92;;;;;;;;;;5021491;28;20515;-43
2023/12/09 14:45:06;;;;;;;20.08;3.40;;;;;;;;;;5023284;28;20124;-43
2023/12/09 14:47:34;;;;;;;17.48;2.17;;;;;;;;;;5022732;28;20029;-45